Time;durP1;ratioP1;P1;durP2;ratioP2;P2;SDS_P1;SDS_P2;PMS_P1;PMS_P2;Temp;Humidity;BMP_temperature;BMP_pressure;BME280_temperature;BME280_humidity;BME280_pressure;Samples;Min_cycle;Max_cycle;Signal;HPM_P1;HPM_P2
2024/03/27 00:00:07;;;;;;;6.20;5.00;;;14.30;1.00;;;;;;5061337;28;20180;-41
2024/03/27 00:02:34;;;;;;;4.90;4.40;;;14.20;1.00;;;;;;5080032;28;20177;-42
2024/03/27 00:04:59;;;;;;;6.57;4.67;;;14.30;1.00;;;;;;5081033;28;20445;-40
2024/03/27 00:07:25;;;;;;;5.07;4.57;;;14.30;1.00;;;;;;5079884;28;20427;-41
2024/03/27 00:09:51;;;;;;;5.23;4.63;;;14.20;1.00;;;;;;5061928;28;20173;-41
2024/03/27 00:12:17;;;;;;;4.60;4.10;;;14.20;1.00;;;;;;5081468;28;20312;-41
2024/03/27 00:15:00;;;;;;;5.47;4.47;;;14.20;1.00;;;;;;5080641;28;20268;-41
2024/03/27 00:17:26;;;;;;;4.23;3.07;;;14.20;1.00;;;;;;5081974;28;20440;-41
2024/03/27 00:19:52;;;;;;;3.97;1.80;;;14.30;1.00;;;;;;5062849;28;20514;-41
2024/03/27 00:22:18;;;;;;;2.40;2.20;;;14.60;1.00;;;;;;5079988;28;20192;-41
2024/03/27 00:24:43;;;;;;;3.03;2.00;;;14.90;1.00;;;;;;5063793;28;20185;-43
2024/03/27 00:27:09;;;;;;;3.70;2.10;;;15.30;1.00;;;;;;5063445;28;20196;-41
2024/03/27 00:29:35;;;;;;;4.53;2.40;;;15.60;1.00;;;;;;5080645;28;20784;-42
2024/03/27 00:32:00;;;;;;;7.13;2.60;;;15.90;1.00;;;;;;5081065;28;20532;-41
2024/03/27 00:34:26;;;;;;;4.33;2.57;;;16.10;1.00;;;;;;5081157;28;20212;-41
2024/03/27 00:36:53;;;;;;;4.80;2.50;;;16.30;1.00;;;;;;5081496;28;20272;-41
2024/03/27 00:39:18;;;;;;;5.10;2.90;;;16.50;1.00;;;;;;5081624;28;20182;-43
2024/03/27 00:41:44;;;;;;;3.77;3.03;;;16.60;1.00;;;;;;5081892;28;20481;-47
2024/03/27 00:44:09;;;;;;;4.30;2.20;;;16.80;1.00;;;;;;5080895;28;20271;-42
2024/03/27 00:46:35;;;;;;;4.40;2.53;;;16.80;1.00;;;;;;5081179;28;20193;-42
2024/03/27 00:49:04;;;;;;;4.80;2.30;;;16.90;1.00;;;;;;5081446;28;20204;-43
2024/03/27 00:51:29;;;;;;;4.57;2.43;;;17.00;1.00;;;;;;5081542;28;20239;-43
2024/03/27 00:53:55;;;;;;;3.23;2.63;;;17.00;1.00;;;;;;5080805;28;20518;-42
2024/03/27 00:56:22;;;;;;;4.30;3.07;;;17.00;1.00;;;;;;5080653;28;20272;-41
2024/03/27 00:58:48;;;;;;;3.03;2.73;;;16.80;1.00;;;;;;5080734;28;20196;-43
2024/03/27 01:01:13;;;;;;;3.80;3.43;;;16.50;1.00;;;;;;5080799;28;20431;-43
2024/03/27 01:03:39;;;;;;;3.17;2.87;;;16.10;1.00;;;;;;5081278;28;20173;-41
2024/03/27 01:06:05;;;;;;;3.87;3.27;;;15.80;1.00;;;;;;5079636;28;20177;-42
2024/03/27 01:08:31;;;;;;;4.03;3.40;;;15.60;1.00;;;;;;5080996;28;20181;-42
2024/03/27 01:10:56;;;;;;;4.10;3.70;;;15.30;1.00;;;;;;5081028;28;20463;-42
2024/03/27 01:13:22;;;;;;;3.93;3.53;;;15.10;1.00;;;;;;5080830;28;20192;-41
2024/03/27 01:15:51;;;;;;;5.60;4.10;;;14.90;1.00;;;;;;5081280;28;20483;-42
2024/03/27 01:18:17;;;;;;;7.23;3.57;;;14.70;1.00;;;;;;5081172;28;20250;-40
2024/03/27 01:20:43;;;;;;;4.67;4.00;;;14.50;1.00;;;;;;5080422;28;20435;-40
2024/03/27 01:23:09;;;;;;;5.70;4.37;;;14.40;1.00;;;;;;5062979;28;20180;-43
2024/03/27 01:25:36;;;;;;;5.97;4.30;;;14.20;1.00;;;;;;5081514;28;20458;-41
2024/03/27 01:28:02;;;;;;;5.80;4.13;;;14.10;1.00;;;;;;5082003;28;20448;-42
2024/03/27 01:30:28;;;;;;;9.10;3.73;;;14.00;1.00;;;;;;5062866;28;20675;-44
2024/03/27 01:32:54;;;;;;;4.37;3.87;;;13.90;1.00;;;;;;5080249;28;20443;-42
2024/03/27 01:35:19;;;;;;;4.77;3.90;;;13.80;1.00;;;;;;5062763;28;20217;-41
2024/03/27 01:37:45;;;;;;;4.50;3.70;;;13.80;1.00;;;;;;5080432;28;20181;-41
2024/03/27 01:40:11;;;;;;;4.47;3.80;;;13.70;1.00;;;;;;5080061;28;20263;-41
2024/03/27 01:42:36;;;;;;;3.57;2.93;;;13.60;1.00;;;;;;5080278;28;20199;-41
2024/03/27 01:45:02;;;;;;;7.30;4.33;;;13.50;1.00;;;;;;5080651;28;20714;-41
2024/03/27 01:47:28;;;;;;;4.60;3.80;;;13.50;1.00;;;;;;5062721;28;20588;-43
2024/03/27 01:49:54;;;;;;;3.90;3.30;;;13.40;1.00;;;;;;5079428;28;20443;-43
2024/03/27 01:52:20;;;;;;;4.00;3.00;;;13.30;1.00;;;;;;5062842;28;20216;-43
2024/03/27 01:54:47;;;;;;;3.47;3.10;;;13.30;1.00;;;;;;5061656;28;20474;-43
2024/03/27 01:57:13;;;;;;;3.90;2.60;;;13.20;1.00;;;;;;5079745;28;20173;-40
2024/03/27 01:59:39;;;;;;;4.50;3.70;;;13.10;1.00;;;;;;5078903;28;20423;-41
2024/03/27 02:02:05;;;;;;;4.30;3.20;;;13.10;1.00;;;;;;5061820;28;20484;-42
2024/03/27 02:04:31;;;;;;;7.53;3.10;;;13.00;1.00;;;;;;5061672;28;20573;-41
2024/03/27 02:06:56;;;;;;;4.33;2.80;;;12.90;1.00;;;;;;5061727;28;20430;-43
2024/03/27 02:09:22;;;;;;;4.90;4.07;;;12.90;1.00;;;;;;5061583;28;20415;-41
2024/03/27 02:11:48;;;;;;;4.63;3.00;;;12.80;1.00;;;;;;5079687;28;20193;-42
2024/03/27 02:14:15;;;;;;;5.13;3.80;;;12.80;1.00;;;;;;5078368;28;20181;-41
2024/03/27 02:16:41;;;;;;;4.77;3.77;;;12.70;1.00;;;;;;5061050;28;20181;-41
2024/03/27 02:19:07;;;;;;;5.17;3.43;;;12.60;1.00;;;;;;5061257;28;20461;-41
2024/03/27 02:21:33;;;;;;;5.73;3.87;;;12.60;1.00;;;;;;5078178;28;20523;-41
2024/03/27 02:24:37;;;;;;;5.17;4.33;;;12.50;1.00;;;;;;5078238;28;20435;-43
2024/03/27 02:27:04;;;;;;;6.40;4.10;;;12.50;1.00;;;;;;5060311;28;20431;-42
2024/03/27 02:29:29;;;;;;;6.47;3.80;;;12.40;1.00;;;;;;5079074;28;20423;-44
2024/03/27 02:31:55;;;;;;;5.97;3.90;;;12.40;1.00;;;;;;5061504;28;20454;-41
2024/03/27 02:34:20;;;;;;;6.67;3.40;;;12.30;1.00;;;;;;5061827;28;20595;-41
2024/03/27 02:36:46;;;;;;;6.40;4.67;;;12.30;1.00;;;;;;5061999;28;20208;-41
2024/03/27 02:39:12;;;;;;;5.37;4.87;;;12.30;1.00;;;;;;5079196;28;20583;-41
2024/03/27 02:41:37;;;;;;;4.90;4.20;;;12.20;1.00;;;;;;5079312;28;20196;-42
2024/03/27 02:44:06;;;;;;;4.17;3.77;;;12.10;1.00;;;;;;5079389;28;20315;-41
2024/03/27 02:46:32;;;;;;;4.73;3.90;;;12.10;1.00;;;;;;5079012;28;20177;-41
2024/03/27 02:48:57;;;;;;;5.60;4.07;;;12.10;1.00;;;;;;5078642;28;20856;-43
2024/03/27 02:51:23;;;;;;;5.20;3.40;;;12.00;1.00;;;;;;5078606;28;20173;-42
2024/03/27 02:53:48;;;;;;;8.83;4.00;;;12.00;1.00;;;;;;5079027;28;20181;-44
2024/03/27 02:56:14;;;;;;;4.70;4.23;;;11.90;1.00;;;;;;5078792;28;20240;-41
2024/03/27 02:58:40;;;;;;;5.93;4.83;;;11.90;1.00;;;;;;5078708;28;20456;-41
2024/03/27 03:01:05;;;;;;;6.43;4.67;;;11.80;1.00;;;;;;5078730;28;20178;-42
2024/03/27 03:03:31;;;;;;;5.17;3.80;;;11.80;1.00;;;;;;5079116;28;20173;-43
2024/03/27 03:05:56;;;;;;;5.40;4.47;;;11.70;1.00;;;;;;5078989;28;20192;-41
2024/03/27 03:08:22;;;;;;;7.30;4.80;;;11.70;1.00;;;;;;5078997;28;20189;-41
2024/03/27 03:10:52;;;;;;;8.33;4.90;;;11.60;1.00;;;;;;5079120;28;20240;-42
2024/03/27 03:13:18;;;;;;;5.00;4.50;;;11.60;1.00;;;;;;5078232;28;20615;-41
2024/03/27 03:15:44;;;;;;;4.87;4.17;;;11.60;1.00;;;;;;5078091;28;20467;-42
2024/03/27 03:18:10;;;;;;;6.33;4.60;;;11.50;1.00;;;;;;5078499;28;20411;-41
2024/03/27 03:20:36;;;;;;;10.00;4.70;;;11.50;1.00;;;;;;5078757;28;20181;-41
2024/03/27 03:23:01;;;;;;;6.93;4.80;;;11.50;1.00;;;;;;5078165;28;20525;-41
2024/03/27 03:25:27;;;;;;;5.50;3.93;;;11.40;1.00;;;;;;5060657;28;20203;-42
2024/03/27 03:27:53;;;;;;;6.53;4.10;;;11.40;4.00;;;;;;5077311;28;20310;-43
2024/03/27 03:30:18;;;;;;;4.67;4.20;;;11.30;11.30;;;;;;5078111;28;20421;-43
2024/03/27 03:32:44;;;;;;;6.40;4.10;;;11.30;15.40;;;;;;5078429;28;20230;-42
2024/03/27 03:35:10;;;;;;;5.03;4.27;;;11.30;21.30;;;;;;5059837;28;20276;-41
2024/03/27 03:37:36;;;;;;;5.30;4.50;;;11.30;26.50;;;;;;5078448;28;20180;-41
2024/03/27 03:40:17;;;;;;;5.83;5.33;;;11.20;37.70;;;;;;5078496;28;20670;-41
2024/03/27 03:42:43;;;;;;;4.90;4.37;;;11.20;53.10;;;;;;5077730;28;20575;-41
2024/03/27 03:45:08;;;;;;;8.87;5.13;;;11.20;61.10;;;;;;5078835;28;20447;-42
2024/03/27 03:47:34;;;;;;;6.10;5.17;;;11.10;81.20;;;;;;5077403;28;20821;-43
2024/03/27 03:50:00;;;;;;;6.80;5.00;;;11.10;95.80;;;;;;5077097;28;20270;-43
2024/03/27 03:52:25;;;;;;;5.20;4.70;;;11.00;99.90;;;;;;5077741;28;20423;-41
2024/03/27 03:54:51;;;;;;;6.03;5.10;;;11.00;99.90;;;;;;5077776;28;20665;-41
2024/03/27 03:57:17;;;;;;;7.33;4.80;;;11.00;99.90;;;;;;5078002;28;20208;-44
2024/03/27 03:59:42;;;;;;;4.60;3.90;;;11.00;99.90;;;;;;5077936;28;20192;-42
2024/03/27 04:02:08;;;;;;;7.00;4.40;;;11.00;99.90;;;;;;5078426;28;20192;-41
2024/03/27 04:04:33;;;;;;;5.30;4.50;;;10.90;99.90;;;;;;5060518;28;20444;-42
2024/03/27 04:07:00;;;;;;;6.53;4.43;;;10.90;99.90;;;;;;5077826;28;20185;-41
2024/03/27 04:09:27;;;;;;;7.30;4.53;;;10.90;99.90;;;;;;5078100;28;20247;-41
2024/03/27 04:11:52;;;;;;;5.30;4.80;;;10.90;99.90;;;;;;5077374;28;20435;-43
2024/03/27 04:14:18;;;;;;;4.83;4.37;;;10.80;99.90;;;;;;5077180;28;20833;-41
2024/03/27 04:16:43;;;;;;;5.23;4.17;;;10.80;99.90;;;;;;5076378;28;20268;-42
2024/03/27 04:19:09;;;;;;;6.37;4.00;;;10.80;99.90;;;;;;5076713;28;20223;-41
2024/03/27 04:21:35;;;;;;;6.73;4.57;;;10.80;99.90;;;;;;5075963;28;20441;-40
2024/03/27 04:24:02;;;;;;;7.00;5.10;;;10.70;99.90;;;;;;5076867;28;20416;-42
2024/03/27 04:26:28;;;;;;;5.40;4.30;;;10.70;99.90;;;;;;5076683;28;20177;-40
2024/03/27 04:28:53;;;;;;;6.77;4.73;;;10.70;99.90;;;;;;5076568;28;20951;-41
2024/03/27 04:31:19;;;;;;;6.40;4.30;;;10.60;99.90;;;;;;5078332;28;20185;-42
2024/03/27 04:33:44;;;;;;;6.70;4.10;;;10.60;99.90;;;;;;5077093;28;20272;-43
2024/03/27 04:36:10;;;;;;;5.43;4.30;;;10.60;99.90;;;;;;5075717;28;20549;-42
2024/03/27 04:38:36;;;;;;;5.80;4.00;;;10.60;99.90;;;;;;5075437;28;20177;-43
2024/03/27 04:41:09;;;;;;;5.30;4.47;;;10.60;99.90;;;;;;5076009;28;20229;-42
2024/03/27 04:43:39;;;;;;;5.17;4.30;;;10.50;99.90;;;;;;5058576;28;20267;-41
2024/03/27 04:46:06;;;;;;;5.40;4.70;;;10.50;99.90;;;;;;5059595;28;20424;-40
2024/03/27 04:48:31;;;;;;;5.57;4.83;;;10.50;99.90;;;;;;5060167;28;20455;-42
2024/03/27 04:50:58;;;;;;;7.50;5.00;;;10.50;99.90;;;;;;5060612;28;20699;-43
2024/03/27 04:53:23;;;;;;;6.60;4.50;;;10.50;99.90;;;;;;5060502;28;20181;-41
2024/03/27 04:55:55;;;;;;;4.87;4.23;;;10.40;99.90;;;;;;5060247;28;20709;-42
2024/03/27 04:58:21;;;;;;;4.90;4.43;;;10.40;99.90;;;;;;5059826;28;20472;-44
2024/03/27 05:00:47;;;;;;;8.60;4.40;;;10.40;99.90;;;;;;5060574;28;20421;-41
2024/03/27 05:03:12;;;;;;;6.60;5.40;;;10.40;99.90;;;;;;5060770;28;20204;-41
2024/03/27 05:05:38;;;;;;;5.40;4.83;;;10.40;99.90;;;;;;5061099;28;20190;-41
2024/03/27 05:08:04;;;;;;;7.10;4.70;;;10.30;99.90;;;;;;5060386;28;20186;-42
2024/03/27 05:10:30;;;;;;;5.63;5.10;;;10.30;99.90;;;;;;5059145;28;20499;-41
2024/03/27 05:12:55;;;;;;;6.80;5.43;;;10.30;99.90;;;;;;5060943;28;20456;-42
2024/03/27 05:15:21;;;;;;;6.70;5.10;;;10.30;99.90;;;;;;5060772;28;20653;-41
2024/03/27 05:17:47;;;;;;;4.40;4.00;;;10.30;99.90;;;;;;5059747;28;20232;-40
2024/03/27 05:20:17;;;;;;;5.80;4.30;;;10.30;99.90;;;;;;5057589;28;20202;-41
2024/03/27 05:22:43;;;;;;;8.97;5.00;;;10.20;99.90;;;;;;5056761;28;20185;-41
2024/03/27 05:25:09;;;;;;;6.97;4.73;;;10.20;99.90;;;;;;5055748;28;20876;-42
2024/03/27 05:27:34;;;;;;;5.80;4.43;;;10.20;99.90;;;;;;5054438;28;20699;-41
2024/03/27 05:30:00;;;;;;;6.30;5.20;;;10.20;1.00;;;;;;5056814;28;20424;-41
2024/03/27 05:32:26;;;;;;;6.33;4.70;;;10.20;1.00;;;;;;5056808;28;20192;-41
2024/03/27 05:34:52;;;;;;;7.13;4.73;;;10.20;1.00;;;;;;5055478;28;20205;-42
2024/03/27 05:37:18;;;;;;;8.47;5.47;;;10.20;1.00;;;;;;5057527;28;20415;-42
2024/03/27 05:39:44;;;;;;;6.27;5.23;;;10.20;1.00;;;;;;5057979;28;20871;-41
2024/03/27 05:42:09;;;;;;;5.83;5.27;;;10.20;1.00;;;;;;5057569;28;20454;-41
2024/03/27 05:44:35;;;;;;;9.73;4.83;;;10.20;1.00;;;;;;5074566;28;20221;-42
2024/03/27 05:47:01;;;;;;;6.33;5.73;;;10.20;1.00;;;;;;5077443;28;20249;-41
2024/03/27 05:49:29;;;;;;;7.57;5.67;;;10.20;1.00;;;;;;5077982;28;20666;-43
2024/03/27 05:51:54;;;;;;;4.97;4.43;;;10.20;1.00;;;;;;5076858;28;20173;-40
2024/03/27 05:54:20;;;;;;;5.77;5.00;;;10.20;1.00;;;;;;5076490;28;20419;-42
2024/03/27 05:56:46;;;;;;;5.70;4.00;;;10.20;1.00;;;;;;5077197;28;20181;-41
2024/03/27 05:59:11;;;;;;;3.10;2.00;;;10.20;1.00;;;;;;5059726;28;20593;-43
2024/03/27 06:01:37;;;;;;;3.70;2.40;;;10.60;1.00;;;;;;5077805;28;20173;-41
2024/03/27 06:04:03;;;;;;;2.93;2.10;;;11.10;1.00;;;;;;5060426;28;20168;-41
2024/03/27 06:06:29;;;;;;;6.80;2.60;;;11.60;1.00;;;;;;5079028;28;20500;-42
2024/03/27 06:08:54;;;;;;;4.30;2.80;;;12.20;99.90;;;;;;5077953;28;20181;-41
2024/03/27 06:11:20;;;;;;;5.37;3.37;;;12.70;99.90;;;;;;5077885;28;20249;-43
2024/03/27 06:13:46;;;;;;;5.87;3.00;;;13.10;99.90;;;;;;5078899;28;20181;-46
2024/03/27 06:16:12;;;;;;;6.20;3.20;;;13.50;99.90;;;;;;5078370;28;20263;-42
2024/03/27 06:18:38;;;;;;;4.77;3.20;;;13.80;1.00;;;;;;5077550;28;20185;-41
2024/03/27 06:21:04;;;;;;;5.73;3.30;;;14.10;93.50;;;;;;5076240;28;20756;-42
2024/03/27 06:23:29;;;;;;;6.70;4.33;;;14.30;1.00;;;;;;5060109;28;20192;-41
2024/03/27 06:26:00;;;;;;;4.97;4.07;;;14.50;1.00;;;;;;5077082;28;20416;-42
2024/03/27 06:28:26;;;;;;;5.90;4.10;;;14.70;99.90;;;;;;5077816;28;20177;-43
2024/03/27 06:30:58;;;;;;;5.00;4.03;;;14.90;99.90;;;;;;5060082;28;20814;-43
2024/03/27 06:33:24;;;;;;;6.37;4.63;;;15.00;99.90;;;;;;5077472;28;20925;-43
2024/03/27 06:35:51;;;;;;;5.57;4.10;;;15.10;99.90;;;;;;5077101;28;20520;-41
2024/03/27 06:38:17;;;;;;;5.77;4.10;;;15.20;99.90;;;;;;5076625;28;20462;-41
2024/03/27 06:40:43;;;;;;;5.00;3.90;;;15.30;99.90;;;;;;5074683;28;20689;-41
2024/03/27 06:43:09;;;;;;;6.43;3.90;;;15.40;80.70;;;;;;5075740;28;20455;-41
2024/03/27 06:45:38;;;;;;;5.33;4.17;;;15.50;49.00;;;;;;5076592;28;20570;-40
2024/03/27 06:48:04;;;;;;;10.10;3.27;;;15.60;29.30;;;;;;5076586;28;20454;-44
2024/03/27 06:50:30;;;;;;;5.20;3.10;;;15.80;99.90;;;;;;5076638;28;20477;-44
2024/03/27 06:52:56;;;;;;;7.33;4.10;;;16.40;99.90;;;;;;5075781;28;20412;-44
2024/03/27 06:55:21;;;;;;;8.80;4.47;;;16.80;35.20;;;;;;5075544;28;20204;-46
2024/03/27 06:57:47;;;;;;;8.23;4.20;;;17.10;12.60;;;;;;5075092;28;20833;-44
2024/03/27 07:00:13;;;;;;;7.40;4.10;;;17.30;1.00;;;;;;5076274;28;20188;-46
2024/03/27 07:02:39;;;;;;;11.27;4.77;;;17.60;1.00;;;;;;5075531;28;20250;-47
2024/03/27 07:05:07;;;;;;;5.03;3.30;;;17.80;1.00;;;;;;5074777;28;20431;-46
2024/03/27 07:07:33;;;;;;;5.23;4.00;;;18.00;1.00;;;;;;5076395;28;20510;-42
2024/03/27 07:09:59;;;;;;;7.70;4.00;;;18.10;1.00;;;;;;5059182;28;20419;-43
2024/03/27 07:12:24;;;;;;;8.77;4.43;;;18.20;1.00;;;;;;5075856;28;20758;-45
2024/03/27 07:14:50;;;;;;;7.27;4.17;;;18.30;1.00;;;;;;5073032;28;20223;-42
2024/03/27 07:17:17;;;;;;;6.53;4.00;;;18.30;1.00;;;;;;5073245;28;20242;-45
2024/03/27 07:19:46;;;;;;;7.40;4.03;;;18.40;1.00;;;;;;5074010;28;20176;-42
2024/03/27 07:22:11;;;;;;;8.27;3.87;;;18.40;1.00;;;;;;5074585;28;20408;-42
2024/03/27 07:24:37;;;;;;;7.83;4.30;;;18.40;1.00;;;;;;5074977;28;20441;-45
2024/03/27 07:27:03;;;;;;;5.70;4.23;;;18.50;1.00;;;;;;5072327;28;20197;-43
2024/03/27 07:29:28;;;;;;;4.43;3.60;;;18.50;1.00;;;;;;5071504;28;20189;-44
2024/03/27 07:31:54;;;;;;;4.37;3.70;;;18.60;1.00;;;;;;5072796;28;20208;-42
2024/03/27 07:34:19;;;;;;;7.37;4.20;;;18.70;1.00;;;;;;5072164;28;20176;-42
2024/03/27 07:36:45;;;;;;;5.13;3.50;;;18.80;1.00;;;;;;5073084;28;20464;-43
2024/03/27 07:39:10;;;;;;;3.90;3.47;;;19.10;1.00;;;;;;5071746;28;20178;-43
2024/03/27 07:41:36;;;;;;;4.53;3.43;;;19.30;1.00;;;;;;5073777;28;20510;-42
2024/03/27 07:44:02;;;;;;;5.30;3.47;;;19.50;1.00;;;;;;5074666;28;20229;-44
2024/03/27 07:46:27;;;;;;;3.77;3.37;;;19.60;1.00;;;;;;5074297;28;20218;-44
2024/03/27 07:48:55;;;;;;;4.83;3.43;;;19.70;1.00;;;;;;5073935;28;20428;-43
2024/03/27 07:51:21;;;;;;;5.50;3.80;;;19.80;1.00;;;;;;5072624;28;20181;-42
2024/03/27 07:53:47;;;;;;;6.23;3.37;;;19.90;1.00;;;;;;5072538;28;20535;-45
2024/03/27 07:56:12;;;;;;;4.83;3.03;;;20.00;1.00;;;;;;5073411;28;20545;-45
2024/03/27 07:58:38;;;;;;;4.20;3.17;;;20.30;1.00;;;;;;5074328;28;20509;-43
2024/03/27 08:01:04;;;;;;;5.83;3.37;;;20.50;1.00;;;;;;5075704;28;20165;-43
2024/03/27 08:03:30;;;;;;;3.60;3.17;;;20.80;1.00;;;;;;5075845;28;20219;-46
2024/03/27 08:05:56;;;;;;;5.20;3.30;;;20.90;1.00;;;;;;5074106;28;20594;-43
2024/03/27 08:08:22;;;;;;;4.83;3.30;;;21.00;1.00;;;;;;5074340;28;20436;-42
2024/03/27 08:10:55;;;;;;;5.17;3.80;;;21.10;1.00;;;;;;5075021;28;20419;-43
2024/03/27 08:13:21;;;;;;;5.80;3.50;;;21.20;1.00;;;;;;5075794;28;20177;-42
2024/03/27 08:15:46;;;;;;;6.80;3.30;;;21.20;1.00;;;;;;5075994;28;20471;-44
2024/03/27 08:18:12;;;;;;;3.70;2.93;;;21.30;1.00;;;;;;5078183;28;20331;-44
2024/03/27 08:20:37;;;;;;;3.10;2.80;;;21.30;1.00;;;;;;5077303;28;20196;-45
2024/03/27 08:23:03;;;;;;;4.90;2.60;;;21.30;1.00;;;;;;5076377;28;20270;-47
2024/03/27 08:25:32;;;;;;;3.47;3.07;;;21.50;1.00;;;;;;5076654;28;20195;-45
2024/03/27 08:27:58;;;;;;;3.17;2.73;;;21.70;1.00;;;;;;5077397;28;20177;-45
2024/03/27 08:30:24;;;;;;;5.10;3.10;;;22.00;1.00;;;;;;5076680;28;20602;-45
2024/03/27 08:32:50;;;;;;;4.03;3.10;;;22.20;1.00;;;;;;5077085;28;20514;-43
2024/03/27 08:35:16;;;;;;;3.40;3.10;;;22.50;1.00;;;;;;5059142;28;20205;-46
2024/03/27 08:37:43;;;;;;;4.70;3.20;;;22.70;1.00;;;;;;5076521;28;20169;-44
2024/03/27 08:40:09;;;;;;;4.77;2.93;;;22.90;1.00;;;;;;5060862;28;20453;-49
2024/03/27 08:42:35;;;;;;;3.40;3.07;;;23.00;1.00;;;;;;5077781;28;20431;-44
2024/03/27 08:45:02;;;;;;;2.83;2.53;;;23.10;1.00;;;;;;5054950;28;20481;-44
2024/03/27 08:47:30;;;;;;;4.70;2.70;;;23.30;1.00;;;;;;5055652;28;20182;-43
2024/03/27 08:49:56;;;;;;;3.63;2.53;;;23.60;1.00;;;;;;5054306;28;20413;-45
2024/03/27 08:52:21;;;;;;;3.80;3.20;;;23.90;1.00;;;;;;5054807;28;20408;-47
2024/03/27 08:54:47;;;;;;;5.63;2.97;;;24.20;1.00;;;;;;5055178;28;20316;-42
2024/03/27 08:57:12;;;;;;;5.50;2.90;;;24.50;1.00;;;;;;5053724;28;20190;-43
2024/03/27 08:59:38;;;;;;;4.73;2.43;;;24.70;1.00;;;;;;5055972;28;20188;-44
2024/03/27 09:02:04;;;;;;;5.00;3.60;;;24.90;1.00;;;;;;5055959;28;20257;-45
2024/03/27 09:04:29;;;;;;;4.83;3.07;;;25.20;1.00;;;;;;5055627;28;20201;-44
2024/03/27 09:06:55;;;;;;;6.20;3.40;;;25.50;1.00;;;;;;5056444;28;20185;-45
2024/03/27 09:09:20;;;;;;;5.47;3.20;;;25.70;1.00;;;;;;5054733;28;20429;-44
2024/03/27 09:11:46;;;;;;;4.97;3.40;;;25.90;1.00;;;;;;5055771;28;20196;-45
2024/03/27 09:14:11;;;;;;;3.63;3.30;;;26.20;1.00;;;;;;5054201;28;20174;-43
2024/03/27 09:16:37;;;;;;;4.83;3.20;;;26.20;1.00;;;;;;5052496;28;20612;-43
2024/03/27 09:19:03;;;;;;;5.87;3.33;;;26.30;1.00;;;;;;5052924;28;20429;-43
2024/03/27 09:21:28;;;;;;;6.50;3.37;;;26.30;1.00;;;;;;5055047;28;20271;-43
2024/03/27 09:23:54;;;;;;;4.23;3.20;;;26.20;1.00;;;;;;5054826;28;20588;-46
2024/03/27 09:26:19;;;;;;;3.17;2.50;;;26.10;1.00;;;;;;5053523;28;20189;-45
2024/03/27 09:28:45;;;;;;;4.93;3.50;;;26.30;1.00;;;;;;5053308;28;20368;-44
2024/03/27 09:31:10;;;;;;;4.53;3.40;;;26.60;1.00;;;;;;5054707;28;20178;-44
2024/03/27 09:33:36;;;;;;;3.63;3.33;;;26.70;1.00;;;;;;5055774;28;20194;-44
2024/03/27 09:36:02;;;;;;;3.87;3.23;;;26.60;1.00;;;;;;5056738;28;20499;-42
2024/03/27 09:38:27;;;;;;;3.63;3.33;;;26.60;1.00;;;;;;5056419;28;20481;-46
2024/03/27 09:40:56;;;;;;;3.77;3.03;;;26.60;1.00;;;;;;5057364;28;20202;-44
2024/03/27 09:43:24;;;;;;;3.43;3.10;;;26.60;1.00;;;;;;5057006;28;20253;-43
2024/03/27 09:45:50;;;;;;;4.67;3.30;;;26.60;1.00;;;;;;5056155;28;20459;-44
2024/03/27 09:48:16;;;;;;;4.00;3.10;;;26.40;1.00;;;;;;5057370;28;20459;-44
2024/03/27 09:50:42;;;;;;;6.70;3.97;;;26.30;1.00;;;;;;5057263;28;20467;-46
2024/03/27 09:53:10;;;;;;;6.30;3.57;;;26.40;1.00;;;;;;5057260;28;20452;-47
2024/03/27 09:55:38;;;;;;;3.53;3.23;;;26.50;1.00;;;;;;5055570;28;20772;-45
2024/03/27 09:58:08;;;;;;;3.60;3.10;;;26.40;1.00;;;;;;5056546;28;20457;-44
2024/03/27 10:00:34;;;;;;;4.17;3.60;;;26.70;1.00;;;;;;5055473;28;20500;-44
2024/03/27 10:03:01;;;;;;;9.03;3.80;;;27.00;1.00;;;;;;5056918;28;20494;-43
2024/03/27 10:05:28;;;;;;;3.67;3.37;;;27.20;1.00;;;;;;5056132;28;20437;-44
2024/03/27 10:07:57;;;;;;;3.50;3.10;;;27.30;1.00;;;;;;5055493;28;20827;-47
2024/03/27 10:10:23;;;;;;;4.60;3.10;;;27.30;1.00;;;;;;5056196;28;20408;-47
2024/03/27 10:12:50;;;;;;;3.50;3.03;;;27.40;1.00;;;;;;5053648;28;20837;-47
2024/03/27 10:15:16;;;;;;;4.03;3.63;;;27.50;1.00;;;;;;5055615;28;20998;-44
2024/03/27 10:17:42;;;;;;;5.03;3.47;;;27.90;1.00;;;;;;5055482;28;20420;-45
2024/03/27 10:20:09;;;;;;;5.07;3.93;;;28.10;1.00;;;;;;5055597;28;20482;-45
2024/03/27 10:22:35;;;;;;;4.63;3.50;;;28.00;1.00;;;;;;5052643;28;20383;-43
2024/03/27 10:25:04;;;;;;;4.27;3.43;;;27.90;1.00;;;;;;5054330;28;20497;-44
2024/03/27 10:27:30;;;;;;;5.97;4.53;;;27.90;1.00;;;;;;5054398;28;20399;-46
2024/03/27 10:29:56;;;;;;;5.33;4.27;;;27.50;1.00;;;;;;5053601;28;20460;-48
2024/03/27 10:32:22;;;;;;;6.97;6.37;;;27.30;1.00;;;;;;5053383;28;20432;-46
2024/03/27 10:34:49;;;;;;;6.87;5.50;;;27.00;1.00;;;;;;5054202;28;20186;-45
2024/03/27 10:37:15;;;;;;;8.80;5.83;;;26.90;1.00;;;;;;5053793;28;20444;-46
2024/03/27 10:39:51;;;;;;;4.60;4.03;;;26.50;1.00;;;;;;5054401;28;20454;-47
2024/03/27 10:42:22;;;;;;;4.43;4.07;;;26.30;1.00;;;;;;5054425;28;20398;-45
2024/03/27 10:44:49;;;;;;;6.73;4.03;;;25.90;1.00;;;;;;5071325;28;20811;-46
2024/03/27 10:47:17;;;;;;;4.30;3.90;;;25.80;1.00;;;;;;5075140;28;20398;-43
2024/03/27 10:49:43;;;;;;;4.50;4.10;;;25.60;1.00;;;;;;5058431;28;20688;-44
2024/03/27 10:52:10;;;;;;;6.27;5.70;;;25.50;1.00;;;;;;5058365;28;20693;-47
2024/03/27 10:54:36;;;;;;;6.37;5.03;;;25.40;1.00;;;;;;5075781;28;20423;-43
2024/03/27 10:57:03;;;;;;;5.53;5.03;;;25.50;1.00;;;;;;5076773;28;20463;-45
2024/03/27 10:59:29;;;;;;;5.17;4.77;;;25.60;1.00;;;;;;5040669;28;20438;-46
2024/03/27 11:02:07;;;;;;;5.00;4.50;;;25.50;1.00;;;;;;5058294;28;20442;-44
2024/03/27 11:04:36;;;;;;;3.90;3.60;;;25.70;1.00;;;;;;5075833;28;20385;-46
2024/03/27 11:07:02;;;;;;;4.57;3.83;;;25.70;1.00;;;;;;5076389;28;20419;-48
2024/03/27 11:09:28;;;;;;;4.40;4.00;;;25.30;1.00;;;;;;5057798;28;20447;-46
2024/03/27 11:11:53;;;;;;;3.30;3.00;;;24.90;1.00;;;;;;5074777;28;20203;-43
2024/03/27 11:14:20;;;;;;;4.40;3.10;;;24.50;1.00;;;;;;5075257;28;20213;-47
2024/03/27 11:16:57;;;;;;;3.80;3.30;;;24.10;1.00;;;;;;5075931;28;20195;-45
2024/03/27 11:19:38;;;;;;;3.57;3.27;;;23.90;1.00;;;;;;5058755;28;20457;-47
2024/03/27 11:22:10;;;;;;;3.30;3.00;;;23.50;1.00;;;;;;5076184;28;20419;-43
2024/03/27 11:24:36;;;;;;;3.17;2.87;;;23.20;1.00;;;;;;5075458;28;20423;-44
2024/03/27 11:27:03;;;;;;;3.47;3.17;;;22.90;1.00;;;;;;5076152;28;20435;-45
2024/03/27 11:29:30;;;;;;;2.87;2.60;;;22.50;1.00;;;;;;5073967;28;20731;-43
2024/03/27 11:32:00;;;;;;;3.83;3.43;;;22.20;1.00;;;;;;5073752;28;20419;-43
2024/03/27 11:34:25;;;;;;;4.43;3.30;;;21.90;1.00;;;;;;5073776;28;20518;-46
2024/03/27 11:36:55;;;;;;;2.90;2.60;;;21.60;1.00;;;;;;5072769;28;20510;-41
2024/03/27 11:39:21;;;;;;;4.00;3.70;;;21.40;1.00;;;;;;5038761;28;20264;-42
2024/03/27 11:41:47;;;;;;;3.70;3.40;;;21.10;1.00;;;;;;5075000;28;20446;-44
2024/03/27 11:44:14;;;;;;;3.73;3.13;;;20.70;1.00;;;;;;5074770;28;20808;-43
2024/03/27 11:46:39;;;;;;;3.30;3.00;;;20.30;1.00;;;;;;5056308;28;20430;-41
2024/03/27 11:49:05;;;;;;;3.57;3.27;;;19.90;1.00;;;;;;5074709;28;20577;-43
2024/03/27 11:51:31;;;;;;;3.43;2.90;;;19.50;1.00;;;;;;5062380;28;20487;-41
2024/03/27 11:53:58;;;;;;;4.23;3.37;;;19.00;1.00;;;;;;5061283;28;20521;-41
2024/03/27 11:56:31;;;;;;;3.80;2.87;;;18.80;1.00;;;;;;5078498;28;20622;-41
2024/03/27 11:58:57;;;;;;;2.80;2.60;;;18.50;1.00;;;;;;5059483;28;20451;-43
2024/03/27 12:01:24;;;;;;;2.83;2.50;;;18.40;1.00;;;;;;5078196;28;20442;-42
2024/03/27 12:03:50;;;;;;;2.40;2.20;;;18.10;1.00;;;;;;5077680;28;20433;-41
2024/03/27 12:06:17;;;;;;;2.67;1.97;;;18.00;1.00;;;;;;5076923;28;20503;-41
2024/03/27 12:08:43;;;;;;;3.40;1.83;;;18.00;1.00;;;;;;5076451;28;20435;-41
2024/03/27 12:11:09;;;;;;;2.10;1.50;;;18.00;1.00;;;;;;5058001;28;20720;-43
2024/03/27 12:13:36;;;;;;;2.30;1.60;;;18.10;1.00;;;;;;5059416;28;20250;-43
2024/03/27 12:16:15;;;;;;;2.27;1.20;;;18.20;1.00;;;;;;5079077;28;20888;-46
2024/03/27 12:18:43;;;;;;;1.73;1.10;;;18.20;1.00;;;;;;5078922;28;20712;-42
2024/03/27 12:21:13;;;;;;;2.97;1.20;;;18.30;1.00;;;;;;5063267;28;20443;-42
2024/03/27 12:23:39;;;;;;;1.50;1.20;;;18.20;1.00;;;;;;5061973;28;20461;-41
2024/03/27 12:26:11;;;;;;;2.77;1.20;;;18.10;1.00;;;;;;5062334;28;20449;-43
2024/03/27 12:28:38;;;;;;;1.50;0.90;;;18.10;1.00;;;;;;5044787;28;20438;-42
2024/03/27 12:31:04;;;;;;;2.63;1.27;;;18.10;1.00;;;;;;5078693;28;20856;-41
2024/03/27 12:33:31;;;;;;;1.30;0.93;;;18.20;1.00;;;;;;5079030;28;20441;-45
2024/03/27 12:35:57;;;;;;;3.43;1.53;;;18.20;1.00;;;;;;5079650;28;20485;-44
2024/03/27 12:38:23;;;;;;;1.60;1.10;;;18.20;1.00;;;;;;5061497;28;20435;-42
2024/03/27 12:40:48;;;;;;;1.20;0.60;;;18.20;1.00;;;;;;5060986;28;20513;-43
2024/03/27 12:43:14;;;;;;;1.73;1.20;;;18.20;1.00;;;;;;5057493;28;20221;-42
2024/03/27 12:45:40;;;;;;;1.30;0.90;;;18.40;1.00;;;;;;5059914;28;20212;-43
2024/03/27 12:48:06;;;;;;;1.30;0.90;;;18.60;1.00;;;;;;5057974;28;20436;-42
2024/03/27 12:50:31;;;;;;;2.30;1.07;;;19.00;1.00;;;;;;5041686;28;20190;-42